Fedora — SLKU — position and weather

sailwx.info

Track history (hours):
 
Tides and Currents Weather Stations Pressure Air Temp Water Temp Dewpoint Dewpoint Depression Visibility Wind Speed Wind Dir Waves Ship Positions

Fedora

Last reported at 2017-Feb-25 01:32 UTC. Time now 2017-Feb-28 12:45 UTC.
Position S 29°53' E 032°16'.

Length 228 m; draft 9.2 m.

Type: Cargo ship. MMSI: 266259000.

Date/timePositionNaut miles runAvg speedWind from/ knotsBaromVisibWave heightAir tempDewpointWater temp
2017-Feb-25 01:32S 29°53' E 032°16'1616.5
2017-Feb-25 00:34S 29°52' E 031°57'1716.5
2017-Feb-24 23:33S 29°51' E 031°38'1616.4
2017-Feb-24 22:34S 29°51' E 031°19'1414.2
2017-Feb-24 21:33S 29°52' E 031°03'1 0.9
2017-Feb-24 20:33S 29°52' E 031°02'0 0.0
2017-Feb-24 19:31S 29°52' E 031°02'0 0.0
2017-Feb-24 18:31S 29°52' E 031°02'0 0.0
2017-Feb-24 17:28S 29°52' E 031°02'0 0.0
2017-Feb-24 16:31S 29°52' E 031°02'0 0.0
2017-Feb-24 15:31S 29°52' E 031°02'0 0.0
2017-Feb-24 14:31S 29°52' E 031°02'0 0.0
2017-Feb-24 13:31S 29°52' E 031°02'0 0.0
2017-Feb-24 12:31S 29°52' E 031°02'0 0.0
2017-Feb-24 11:31S 29°52' E 031°02'0 0.0
2017-Feb-24 10:31S 29°52' E 031°02'0 0.0
2017-Feb-24 09:31S 29°52' E 031°02'0 0.0
2017-Feb-24 08:31S 29°52' E 031°02'0 0.0
2017-Feb-24 07:31S 29°52' E 031°02'0 0.0
2017-Feb-24 06:25S 29°52' E 031°02'1 1.2
2017-Feb-24 05:33S 29°52' E 031°03'4 3.9
2017-Feb-24 04:33S 29°49' E 031°06'2 2.1
2017-Feb-24 03:33S 29°50' E 031°08'6 6.2
2017-Feb-24 02:33S 29°56' E 031°08'1413.9
2017-Feb-24 01:34S 30°07' E 030°58'1717.2
2017-Feb-24 00:34S 30°22' E 030°48'  
Track history (hours):
 
Tides and Currents Weather Stations Pressure Air Temp Water Temp Dewpoint Dewpoint Depression Visibility Wind Speed Wind Dir Waves Ship Positions

Fedora

Last reported at 2017-Feb-25 01:32 UTC. Time now 2017-Feb-28 12:45 UTC.
Position S 29°53' E 032°16'.

Length 228 m; draft 9.2 m.

Type: Cargo ship. MMSI: 266259000.

Date/timePositionNaut miles runAvg speedWind from/ knotsBaromVisibWave heightAir tempDewpointWater temp
2017-Feb-25 01:32S 29°53' E 032°16'1616.5
2017-Feb-25 00:34S 29°52' E 031°57'1716.5
2017-Feb-24 23:33S 29°51' E 031°38'1616.4
2017-Feb-24 22:34S 29°51' E 031°19'1414.2
2017-Feb-24 21:33S 29°52' E 031°03'1 0.9
2017-Feb-24 20:33S 29°52' E 031°02'0 0.0
2017-Feb-24 19:31S 29°52' E 031°02'0 0.0
2017-Feb-24 18:31S 29°52' E 031°02'0 0.0
2017-Feb-24 17:28S 29°52' E 031°02'0 0.0
2017-Feb-24 16:31S 29°52' E 031°02'0 0.0
2017-Feb-24 15:31S 29°52' E 031°02'0 0.0
2017-Feb-24 14:31S 29°52' E 031°02'0 0.0
2017-Feb-24 13:31S 29°52' E 031°02'0 0.0
2017-Feb-24 12:31S 29°52' E 031°02'0 0.0
2017-Feb-24 11:31S 29°52' E 031°02'0 0.0
2017-Feb-24 10:31S 29°52' E 031°02'0 0.0
2017-Feb-24 09:31S 29°52' E 031°02'0 0.0
2017-Feb-24 08:31S 29°52' E 031°02'0 0.0
2017-Feb-24 07:31S 29°52' E 031°02'0 0.0
2017-Feb-24 06:25S 29°52' E 031°02'1 1.2
2017-Feb-24 05:33S 29°52' E 031°03'4 3.9
2017-Feb-24 04:33S 29°49' E 031°06'2 2.1
2017-Feb-24 03:33S 29°50' E 031°08'6 6.2
2017-Feb-24 02:33S 29°56' E 031°08'1413.9
2017-Feb-24 01:34S 30°07' E 030°58'1717.2
2017-Feb-24 00:34S 30°22' E 030°48'  

Dump ship's entire track history